Warning: fopen(/var/www/metroair/shared/private/wxdata/TAF/AVWX/taf_KIAD): failed to open stream: Permission denied in /var/www/metroair/shared/private/library/orig_library/lib_airport.php on line 533

Warning: fwrite() expects parameter 1 to be resource, boolean given in /var/www/metroair/shared/private/library/orig_library/lib_airport.php on line 534

Warning: fclose() expects parameter 1 to be resource, boolean given in /var/www/metroair/shared/private/library/orig_library/lib_airport.php on line 535

MET6562 - Washington-Dulles to London Heathrow

Boeing 747-400
G-FLEL - Fly UK
7 hrs 10 mins
3190 nm
Fly UK Codeshare - Daily

Departure

Departing from
Washington-Dulles (IAD)
Departure gate
Scheduled Departure
GMT 2250
Local 1750
METAR KIAD 221352Z 35006KT 1/8SM R01R/P6000FT BR OVC004 08/07 A2971 RMK AO2 SFC VIS 1 3/4 SLP060 T00780072
TAF KIAD 221120Z 2212/2318 03005KT 2SM -DZ BR BKN002 OVC008 FM221600 05005KT 6SM -DZ BR BKN008 OVC015 FM222100 05006KT 5SM -RADZ BKN008 OVC015 FM230000 08010G17KT 5SM -RA BKN008 OVC015 FM230700 06015G25KT 5SM -RA BKN008 OVC015 FM231000 06018G32KT 5SM -RA BKN008 OVC015 FM231700 07012G20KT 6SM -RA BKN008 OVC015
  • No charts available

Arrival

Arriving at
London Heathrow (LHR)
Arrival gate
Terminal 3
Scheduled Arrival
GMT 0600
Local 0600
METAR EGLL 221350Z AUTO VRB02KT 7000 NCD 06/01 Q1027 NOSIG
TAF TAF EGLL 221058Z 2212/2318 VRB03KT 6000 FEW025 TEMPO 2212/2215 4800 HZ PROB30 TEMPO 2214/2217 9999 BECMG 2217/2220 4500 BR PROB30 2300/2302 0500 FZFG BKN000 PROB40 2302/2312 0200 FZFG VV/// PROB30 TEMPO 2312/2318 0500 FG BKN001

Route Map

Planning Resources

CAPITAL7 SWANN V268 BROSS J42 RBV J222 JFK PUT TOPPS N137B REDBY NAT_W MIMKU MORAG UL10 HON BNN3A
Route:
OFP Layout:
Units:
Detailed Navlog:
ETOPS Planning:
Plan Stepclimbs:
Runway Analysis:
Include NOTAMS:
FIR NOTAMS:
Flight Maps:

Return Flights

MET6561 (Operated by Fly UK)
Boeing 747-400
1115 GMT

Popularity

Hub Current Bids PiReps this month Total PiReps
KMCI 0 0 0
KLAX 0 0 2
KBOS 0 0 0